Matsuyama current weather conditions

sailwx.info

Wind from 340 at 11 knots

Air temperature 6.0° C
Visibility: greater than 5.4 NM
Dewpoint -5.0° C

Last reported at 2015-Feb-01 02:00 UTC.
Time now 2015-Feb-01 04:14 UTC

Location: N 33°50' E 132°42'.
View on Google Maps.

See reports from other nearby stations

  
Tides and Currents Weather Stations Pressure Air Temp Water Temp Dewpoint Dewpoint Depression Visibility Wind Speed Wind Dir Waves Ship Positions
date/time (UTC)wind fromknots sea level pressurealtimeterstation pressurevisibilityair tempwater tempwave heightnotes
2015-Feb-01 03:00 330 12 5.4 7.0
2015-Feb-01 02:00 340 11 5.4 6.0
2015-Feb-01 01:00 020 10 5.4 5.0
2015-Feb-01 00:00 050 5 5.4 3.0
2015-Jan-31 23:00 120 5 5.4 1.0
2015-Jan-31 22:00 120 5 5.4-0.0
2015-Jan-31 21:10 120 6 5.4-0.0
2015-Jan-31 12:00 020 15 5.4 4.0
2015-Jan-31 11:00 020 15 5.4 5.0
2015-Jan-31 10:00 010 19 5.4 5.0
2015-Jan-31 09:00 350 13 5.4 6.0 Showers in the vicinity.
2015-Jan-31 08:00 360 8 5.4 6.0
2015-Jan-31 07:00 340 9 5.4 5.0 Light rain showers.
2015-Jan-31 06:00 020 9 5.4 6.0 Showers in the vicinity.
2015-Jan-31 05:00 360 7 5.4 6.0
2015-Jan-31 04:00 360 11 5.4 6.0
2015-Jan-31 03:00 350 14 5.4 6.0
2015-Jan-31 02:00 360 16 5.4 7.0
2015-Jan-31 01:00 030 13 5.4 6.0
2015-Jan-31 00:00 010 16 5.4 6.0
2015-Jan-30 23:00 020 14 5.4 6.0 Showers in the vicinity.
2015-Jan-30 22:00 010 13 5.4 6.0
2015-Jan-30 21:10 340 13 5.4 6.0
2015-Jan-30 12:00 320 12 5.4 8.0
2015-Jan-30 11:00 130 5 5.4 6.0
2015-Jan-30 10:00 150 5 5.4 6.0
2015-Jan-30 09:00 140 3 5.4 6.0
2015-Jan-30 08:00 240 3 5.4 7.0
2015-Jan-30 07:00 5.4 7.0
2015-Jan-30 06:00 280 6 5.4 7.0
2015-Jan-30 05:00 270 3 5.4 6.0
2015-Jan-30 04:00 330 4 5.4 6.0